Impacts METAR Board
IDs:

KHDO - Hondo Muni, TX, US

Updated at: 0600 UTC 19 Aug 2019
Potential Impact None Slight Moderate High
Time 18/18Z 18/19Z 18/20Z 18/21Z 18/22Z 18/23Z 19/00Z 19/01Z 19/02Z 19/03Z 19/04Z 19/05Z 19/06Z
Temp91 94 97 98 101 101 100 97 93 90 87 84 82
Dewpt71 70 69 68 66 64 64 65 67 72 72 71 70
Altim29.91 29.89 29.87 29.84 29.82 29.81 29.80 29.82 29.84 29.87 29.91 29.93 29.94
VIS10 10 10 10 10 10 10 10 10 10 10 10 10
CIG-- -- -- -- -- -- -- -- -- -- -- -- --
CoverFEWCLRCLRCLRCLRCLRFEWCLRCLRCLRCLRCLRCLR
FltCatVFRVFRVFRVFRVFRVFRVFRVFRVFRVFRVFRVFRVFR
WX--------------------------
WDir140170140220110170150110130140130130120
WSpd7 6 11 6 9 8 11 8 14 20 17 12 11
WGst15 17 16 16 18 -- 17 -- 20 26 23 -- --
Raw hourly METARs
KHDO 181751Z AUTO 14007G15KT 10SM FEW035 33/22 A2991 RMK AO2 SLP111 T03280217 10333 20233 58006
KHDO 181851Z AUTO 17006G17KT 10SM CLR 34/21 A2989 RMK AO2 SLP103 T03440211
KHDO 181951Z AUTO 14011G16KT 10SM CLR 36/21 A2987 RMK AO2 SLP096 T03610206
KHDO 182051Z AUTO 22006G16KT 10SM CLR 37/20 A2984 RMK AO2 SLP088 T03670200 58023
KHDO 182151Z AUTO 11009G18KT 10SM CLR 38/19 A2982 RMK AO2 SLP080 T03830189
KHDO 182251Z AUTO 17008KT 10SM CLR 38/18 A2981 RMK AO2 SLP078 T03830178
KHDO 182351Z AUTO 15011G17KT 10SM FEW080 38/18 A2980 RMK AO2 SLP074 T03780178 10383 20322 56013
KHDO 190051Z AUTO 11008KT 10SM CLR 36/18 A2982 RMK AO2 SLP079 T03610183
KHDO 190151Z AUTO 13014G20KT 10SM CLR 34/19 A2984 RMK AO2 SLP085 T03390194
KHDO 190251Z AUTO 14020G26KT 10SM CLR 32/22 A2987 RMK AO2 PK WND 13026/0247 SLP095 T03220222 53020
KHDO 190351Z AUTO 13017G23KT 10SM CLR 31/22 A2991 RMK AO2 SLP109 T03060222
KHDO 190451Z AUTO 13012KT 10SM CLR 29/22 A2993 RMK AO2 PK WND 12026/0429 SLP118 T02890217
KHDO 190551Z AUTO 12011KT 10SM CLR 28/21 A2994 RMK AO2 SLP122 T02780211 10378 20278 403830228 51026



Page loaded:  06:30 UTC  |   11:30 PM Pacific  |   12:30 AM Mountain  |   01:30 AM Central  |   02:30 AM Eastern

 

ADVISORIES

FORECASTS

FORECASTS

OBSERVATIONS

USER TOOLS

ABOUT US